sensor_id;sensor_type;location;lat;lon;timestamp;P1;durP1;ratioP1;P2;durP2;ratioP2
70014;SDS011;57358;51.094;6.760;2023-07-28T00:01:00;5.30;;;5.00;;
70014;SDS011;57358;51.094;6.760;2023-07-28T00:03:27;5.20;;;5.00;;
70014;SDS011;57358;51.094;6.760;2023-07-28T00:05:53;5.47;;;5.18;;
70014;SDS011;57358;51.094;6.760;2023-07-28T00:08:22;5.15;;;4.93;;
70014;SDS011;57358;51.094;6.760;2023-07-28T00:10:51;5.10;;;4.90;;
70014;SDS011;57358;51.094;6.760;2023-07-28T00:13:17;5.20;;;5.00;;
70014;SDS011;57358;51.094;6.760;2023-07-28T00:15:43;5.43;;;4.90;;
70014;SDS011;57358;51.094;6.760;2023-07-28T00:18:10;5.38;;;5.07;;
70014;SDS011;57358;51.094;6.760;2023-07-28T00:20:36;5.22;;;5.00;;
70014;SDS011;57358;51.094;6.760;2023-07-28T00:23:03;5.10;;;4.90;;
70014;SDS011;57358;51.094;6.760;2023-07-28T00:25:29;5.18;;;4.95;;
70014;SDS011;57358;51.094;6.760;2023-07-28T00:27:56;5.45;;;5.15;;
70014;SDS011;57358;51.094;6.760;2023-07-28T00:30:22;5.10;;;4.90;;
70014;SDS011;57358;51.094;6.760;2023-07-28T00:32:49;4.95;;;4.75;;
70014;SDS011;57358;51.094;6.760;2023-07-28T00:35:16;5.50;;;5.20;;
70014;SDS011;57358;51.094;6.760;2023-07-28T00:37:45;5.40;;;5.10;;
70014;SDS011;57358;51.094;6.760;2023-07-28T00:40:11;5.32;;;5.03;;
70014;SDS011;57358;51.094;6.760;2023-07-28T00:42:38;5.70;;;5.30;;
70014;SDS011;57358;51.094;6.760;2023-07-28T00:45:05;5.18;;;4.97;;
70014;SDS011;57358;51.094;6.760;2023-07-28T00:47:32;5.32;;;5.03;;
70014;SDS011;57358;51.094;6.760;2023-07-28T00:49:58;5.72;;;5.22;;
70014;SDS011;57358;51.094;6.760;2023-07-28T00:52:27;4.90;;;4.70;;
70014;SDS011;57358;51.094;6.760;2023-07-28T00:54:54;5.07;;;4.88;;
70014;SDS011;57358;51.094;6.760;2023-07-28T00:57:20;5.38;;;5.07;;
70014;SDS011;57358;51.094;6.760;2023-07-28T00:59:47;5.47;;;5.00;;
70014;SDS011;57358;51.094;6.760;2023-07-28T01:02:17;8.43;;;4.85;;
70014;SDS011;57358;51.094;6.760;2023-07-28T01:04:43;5.50;;;5.10;;
70014;SDS011;57358;51.094;6.760;2023-07-28T01:07:14;5.50;;;5.00;;
70014;SDS011;57358;51.094;6.760;2023-07-28T01:10:31;4.95;;;4.70;;
70014;SDS011;57358;51.094;6.760;2023-07-28T01:12:40;5.03;;;4.82;;
70014;SDS011;57358;51.094;6.760;2023-07-28T01:15:07;5.20;;;5.00;;
70014;SDS011;57358;51.094;6.760;2023-07-28T01:17:34;5.40;;;5.10;;
70014;SDS011;57358;51.094;6.760;2023-07-28T01:20:02;5.40;;;5.10;;
70014;SDS011;57358;51.094;6.760;2023-07-28T01:28:06;5.72;;;5.38;;
70014;SDS011;57358;51.094;6.760;2023-07-28T01:30:33;5.28;;;4.97;;
70014;SDS011;57358;51.094;6.760;2023-07-28T01:32:59;5.90;;;5.60;;
70014;SDS011;57358;51.094;6.760;2023-07-28T01:35:26;5.30;;;5.00;;
70014;SDS011;57358;51.094;6.760;2023-07-28T01:37:52;5.45;;;5.15;;
70014;SDS011;57358;51.094;6.760;2023-07-28T01:40:19;5.25;;;5.05;;
70014;SDS011;57358;51.094;6.760;2023-07-28T01:42:46;5.53;;;5.15;;
70014;SDS011;57358;51.094;6.760;2023-07-28T01:45:12;5.25;;;4.95;;
70014;SDS011;57358;51.094;6.760;2023-07-28T01:47:39;5.50;;;5.20;;
70014;SDS011;57358;51.094;6.760;2023-07-28T01:50:05;5.57;;;5.28;;
70014;SDS011;57358;51.094;6.760;2023-07-28T01:52:32;6.00;;;5.60;;
70014;SDS011;57358;51.094;6.760;2023-07-28T01:54:59;6.85;;;5.50;;
70014;SDS011;57358;51.094;6.760;2023-07-28T01:57:26;5.70;;;5.30;;
70014;SDS011;57358;51.094;6.760;2023-07-28T01:59:54;6.20;;;5.80;;
70014;SDS011;57358;51.094;6.760;2023-07-28T02:02:20;5.97;;;5.28;;
70014;SDS011;57358;51.094;6.760;2023-07-28T02:04:47;5.60;;;5.30;;
70014;SDS011;57358;51.094;6.760;2023-07-28T02:07:13;5.20;;;5.00;;
70014;SDS011;57358;51.094;6.760;2023-07-28T02:09:39;5.40;;;4.90;;
70014;SDS011;57358;51.094;6.760;2023-07-28T02:12:06;5.18;;;4.88;;
70014;SDS011;57358;51.094;6.760;2023-07-28T02:14:32;5.85;;;5.53;;
70014;SDS011;57358;51.094;6.760;2023-07-28T02:16:59;5.38;;;5.03;;
70014;SDS011;57358;51.094;6.760;2023-07-28T02:19:26;5.40;;;4.90;;
70014;SDS011;57358;51.094;6.760;2023-07-28T02:21:53;5.63;;;5.30;;
70014;SDS011;57358;51.094;6.760;2023-07-28T02:24:19;5.45;;;5.15;;
70014;SDS011;57358;51.094;6.760;2023-07-28T02:26:45;5.43;;;5.13;;
70014;SDS011;57358;51.094;6.760;2023-07-28T02:29:12;5.20;;;4.95;;
70014;SDS011;57358;51.094;6.760;2023-07-28T02:31:38;5.40;;;5.10;;
70014;SDS011;57358;51.094;6.760;2023-07-28T02:34:05;5.10;;;4.90;;
70014;SDS011;57358;51.094;6.760;2023-07-28T02:36:31;5.50;;;5.20;;
70014;SDS011;57358;51.094;6.760;2023-07-28T02:38:58;5.57;;;5.28;;
70014;SDS011;57358;51.094;6.760;2023-07-28T02:41:24;5.50;;;5.10;;
70014;SDS011;57358;51.094;6.760;2023-07-28T02:43:51;5.25;;;4.95;;
70014;SDS011;57358;51.094;6.760;2023-07-28T02:46:17;5.15;;;4.85;;
70014;SDS011;57358;51.094;6.760;2023-07-28T02:48:44;5.30;;;5.00;;
70014;SDS011;57358;51.094;6.760;2023-07-28T02:51:10;5.40;;;5.10;;
70014;SDS011;57358;51.094;6.760;2023-07-28T02:53:37;5.60;;;5.30;;
70014;SDS011;57358;51.094;6.760;2023-07-28T02:56:03;5.80;;;5.50;;
70014;SDS011;57358;51.094;6.760;2023-07-28T02:58:29;6.35;;;5.20;;
70014;SDS011;57358;51.094;6.760;2023-07-28T03:00:56;5.18;;;4.97;;
70014;SDS011;57358;51.094;6.760;2023-07-28T03:03:22;5.55;;;5.25;;
70014;SDS011;57358;51.094;6.760;2023-07-28T03:05:51;5.57;;;5.28;;
70014;SDS011;57358;51.094;6.760;2023-07-28T03:08:18;5.97;;;5.38;;
70014;SDS011;57358;51.094;6.760;2023-07-28T03:10:44;5.60;;;5.25;;
70014;SDS011;57358;51.094;6.760;2023-07-28T03:13:10;5.50;;;5.20;;
70014;SDS011;57358;51.094;6.760;2023-07-28T03:15:37;5.50;;;5.20;;
70014;SDS011;57358;51.094;6.760;2023-07-28T03:18:03;5.50;;;5.20;;
70014;SDS011;57358;51.094;6.760;2023-07-28T03:20:30;5.65;;;5.35;;
70014;SDS011;57358;51.094;6.760;2023-07-28T03:22:56;5.60;;;5.30;;
70014;SDS011;57358;51.094;6.760;2023-07-28T03:25:23;6.07;;;5.68;;
70014;SDS011;57358;51.094;6.760;2023-07-28T03:27:49;5.68;;;5.18;;
70014;SDS011;57358;51.094;6.760;2023-07-28T03:30:16;5.50;;;5.20;;
70014;SDS011;57358;51.094;6.760;2023-07-28T03:32:42;5.55;;;5.25;;
70014;SDS011;57358;51.094;6.760;2023-07-28T03:35:08;5.80;;;5.32;;
70014;SDS011;57358;51.094;6.760;2023-07-28T03:37:35;5.43;;;5.13;;
70014;SDS011;57358;51.094;6.760;2023-07-28T03:40:01;6.05;;;5.65;;
70014;SDS011;57358;51.094;6.760;2023-07-28T03:42:28;5.43;;;4.97;;
70014;SDS011;57358;51.094;6.760;2023-07-28T03:44:54;5.07;;;4.78;;
70014;SDS011;57358;51.094;6.760;2023-07-28T03:47:21;5.30;;;5.00;;
70014;SDS011;57358;51.094;6.760;2023-07-28T03:49:47;5.63;;;5.28;;
70014;SDS011;57358;51.094;6.760;2023-07-28T03:52:14;5.30;;;5.00;;
70014;SDS011;57358;51.094;6.760;2023-07-28T03:54:40;5.35;;;5.05;;
70014;SDS011;57358;51.094;6.760;2023-07-28T03:57:08;5.57;;;5.28;;
70014;SDS011;57358;51.094;6.760;2023-07-28T03:59:35;5.30;;;5.03;;
70014;SDS011;57358;51.094;6.760;2023-07-28T04:02:02;4.97;;;4.78;;
70014;SDS011;57358;51.094;6.760;2023-07-28T04:04:29;4.90;;;4.70;;
70014;SDS011;57358;51.094;6.760;2023-07-28T04:06:55;7.72;;;4.88;;
70014;SDS011;57358;51.094;6.760;2023-07-28T04:09:21;5.07;;;4.88;;
70014;SDS011;57358;51.094;6.760;2023-07-28T04:11:48;5.18;;;4.97;;
70014;SDS011;57358;51.094;6.760;2023-07-28T04:14:14;5.72;;;5.35;;
70014;SDS011;57358;51.094;6.760;2023-07-28T04:16:41;4.90;;;4.70;;
70014;SDS011;57358;51.094;6.760;2023-07-28T04:19:07;5.40;;;5.10;;
70014;SDS011;57358;51.094;6.760;2023-07-28T04:21:33;5.03;;;4.82;;
70014;SDS011;57358;51.094;6.760;2023-07-28T04:24:00;5.45;;;5.15;;
70014;SDS011;57358;51.094;6.760;2023-07-28T04:26:27;4.90;;;4.70;;
70014;SDS011;57358;51.094;6.760;2023-07-28T04:28:53;5.05;;;4.85;;
70014;SDS011;57358;51.094;6.760;2023-07-28T04:31:20;5.30;;;5.10;;
70014;SDS011;57358;51.094;6.760;2023-07-28T04:33:46;5.20;;;4.95;;
70014;SDS011;57358;51.094;6.760;2023-07-28T04:36:12;5.25;;;4.97;;
70014;SDS011;57358;51.094;6.760;2023-07-28T04:38:39;5.22;;;5.00;;
70014;SDS011;57358;51.094;6.760;2023-07-28T04:41:05;5.30;;;5.00;;
70014;SDS011;57358;51.094;6.760;2023-07-28T04:43:32;5.00;;;4.80;;
70014;SDS011;57358;51.094;6.760;2023-07-28T04:45:58;12.32;;;5.32;;
70014;SDS011;57358;51.094;6.760;2023-07-28T04:48:24;5.50;;;5.20;;
70014;SDS011;57358;51.094;6.760;2023-07-28T04:50:51;5.07;;;4.88;;
70014;SDS011;57358;51.094;6.760;2023-07-28T04:53:17;5.35;;;5.15;;
70014;SDS011;57358;51.094;6.760;2023-07-28T04:55:44;4.97;;;4.78;;
70014;SDS011;57358;51.094;6.760;2023-07-28T04:58:10;5.00;;;4.80;;
70014;SDS011;57358;51.094;6.760;2023-07-28T05:00:37;5.00;;;4.80;;
70014;SDS011;57358;51.094;6.760;2023-07-28T05:03:05;5.18;;;4.88;;
70014;SDS011;57358;51.094;6.760;2023-07-28T05:05:32;10.15;;;5.20;;
70014;SDS011;57358;51.094;6.760;2023-07-28T05:07:58;5.30;;;5.00;;
70014;SDS011;57358;51.094;6.760;2023-07-28T05:10:25;5.38;;;5.15;;
70014;SDS011;57358;51.094;6.760;2023-07-28T05:12:51;5.20;;;5.00;;
70014;SDS011;57358;51.094;6.760;2023-07-28T05:15:18;5.22;;;5.00;;
70014;SDS011;57358;51.094;6.760;2023-07-28T05:17:44;5.25;;;5.05;;
70014;SDS011;57358;51.094;6.760;2023-07-28T05:20:11;5.63;;;5.22;;
70014;SDS011;57358;51.094;6.760;2023-07-28T05:22:37;5.20;;;4.90;;
70014;SDS011;57358;51.094;6.760;2023-07-28T05:25:04;5.43;;;5.13;;
70014;SDS011;57358;51.094;6.760;2023-07-28T05:27:31;5.40;;;5.15;;
70014;SDS011;57358;51.094;6.760;2023-07-28T05:29:58;5.40;;;5.10;;
70014;SDS011;57358;51.094;6.760;2023-07-28T05:32:25;5.10;;;4.90;;
70014;SDS011;57358;51.094;6.760;2023-07-28T05:34:51;5.43;;;5.13;;
70014;SDS011;57358;51.094;6.760;2023-07-28T05:37:18;5.18;;;4.97;;
70014;SDS011;57358;51.094;6.760;2023-07-28T05:39:44;6.20;;;5.00;;
70014;SDS011;57358;51.094;6.760;2023-07-28T05:42:11;5.78;;;5.47;;
70014;SDS011;57358;51.094;6.760;2023-07-28T05:44:37;5.40;;;5.10;;
70014;SDS011;57358;51.094;6.760;2023-07-28T05:47:04;5.15;;;4.95;;
70014;SDS011;57358;51.094;6.760;2023-07-28T05:49:31;5.75;;;5.45;;
70014;SDS011;57358;51.094;6.760;2023-07-28T05:51:58;5.80;;;5.45;;
70014;SDS011;57358;51.094;6.760;2023-07-28T05:54:24;5.63;;;5.32;;
70014;SDS011;57358;51.094;6.760;2023-07-28T05:56:51;5.53;;;5.22;;
70014;SDS011;57358;51.094;6.760;2023-07-28T05:59:17;5.10;;;4.85;;
70014;SDS011;57358;51.094;6.760;2023-07-28T06:01:44;5.47;;;5.18;;
70014;SDS011;57358;51.094;6.760;2023-07-28T06:04:11;5.47;;;5.15;;
70014;SDS011;57358;51.094;6.760;2023-07-28T06:06:37;5.75;;;5.35;;
70014;SDS011;57358;51.094;6.760;2023-07-28T06:09:03;5.20;;;5.00;;
70014;SDS011;57358;51.094;6.760;2023-07-28T06:11:30;5.72;;;5.38;;
70014;SDS011;57358;51.094;6.760;2023-07-28T06:13:56;5.82;;;5.43;;
70014;SDS011;57358;51.094;6.760;2023-07-28T06:16:24;5.85;;;5.40;;
70014;SDS011;57358;51.094;6.760;2023-07-28T06:18:50;5.60;;;5.30;;
70014;SDS011;57358;51.094;6.760;2023-07-28T06:21:17;5.55;;;5.25;;
70014;SDS011;57358;51.094;6.760;2023-07-28T06:23:43;5.70;;;5.40;;
70014;SDS011;57358;51.094;6.760;2023-07-28T06:26:10;6.07;;;5.70;;
70014;SDS011;57358;51.094;6.760;2023-07-28T06:28:36;5.63;;;5.32;;
70014;SDS011;57358;51.094;6.760;2023-07-28T06:31:04;5.70;;;5.40;;
70014;SDS011;57358;51.094;6.760;2023-07-28T06:33:32;6.15;;;5.75;;
70014;SDS011;57358;51.094;6.760;2023-07-28T06:35:58;5.80;;;5.40;;
70014;SDS011;57358;51.094;6.760;2023-07-28T06:38:24;5.70;;;5.40;;
70014;SDS011;57358;51.094;6.760;2023-07-28T06:40:51;5.38;;;5.13;;
70014;SDS011;57358;51.094;6.760;2023-07-28T06:43:17;5.72;;;5.43;;
70014;SDS011;57358;51.094;6.760;2023-07-28T06:45:45;5.40;;;5.10;;
70014;SDS011;57358;51.094;6.760;2023-07-28T06:48:11;6.07;;;5.68;;
70014;SDS011;57358;51.094;6.760;2023-07-28T06:50:38;6.20;;;5.80;;
70014;SDS011;57358;51.094;6.760;2023-07-28T06:53:04;6.10;;;5.72;;
70014;SDS011;57358;51.094;6.760;2023-07-28T06:55:31;6.53;;;5.93;;
70014;SDS011;57358;51.094;6.760;2023-07-28T06:57:57;6.22;;;5.82;;
70014;SDS011;57358;51.094;6.760;2023-07-28T07:00:23;5.90;;;5.57;;
70014;SDS011;57358;51.094;6.760;2023-07-28T07:02:50;6.07;;;5.68;;
70014;SDS011;57358;51.094;6.760;2023-07-28T07:05:16;5.80;;;5.50;;
70014;SDS011;57358;51.094;6.760;2023-07-28T07:07:43;5.78;;;5.47;;
70014;SDS011;57358;51.094;6.760;2023-07-28T07:10:09;6.00;;;5.60;;
70014;SDS011;57358;51.094;6.760;2023-07-28T07:12:36;6.32;;;5.93;;
70014;SDS011;57358;51.094;6.760;2023-07-28T07:15:03;7.05;;;5.57;;
70014;SDS011;57358;51.094;6.760;2023-07-28T07:17:30;6.20;;;5.80;;
70014;SDS011;57358;51.094;6.760;2023-07-28T07:19:57;6.40;;;6.00;;
70014;SDS011;57358;51.094;6.760;2023-07-28T07:22:23;6.05;;;5.70;;
70014;SDS011;57358;51.094;6.760;2023-07-28T07:24:50;5.93;;;5.63;;
70014;SDS011;57358;51.094;6.760;2023-07-28T07:27:16;5.95;;;5.55;;
70014;SDS011;57358;51.094;6.760;2023-07-28T07:29:43;6.00;;;5.65;;
70014;SDS011;57358;51.094;6.760;2023-07-28T07:32:09;6.40;;;5.90;;
70014;SDS011;57358;51.094;6.760;2023-07-28T07:34:37;6.50;;;5.90;;
70014;SDS011;57358;51.094;6.760;2023-07-28T07:37:04;6.10;;;5.55;;
70014;SDS011;57358;51.094;6.760;2023-07-28T07:39:31;6.15;;;5.80;;
70014;SDS011;57358;51.094;6.760;2023-07-28T07:41:57;6.38;;;5.88;;
70014;SDS011;57358;51.094;6.760;2023-07-28T07:44:24;6.32;;;5.80;;
70014;SDS011;57358;51.094;6.760;2023-07-28T07:46:50;6.03;;;5.65;;
70014;SDS011;57358;51.094;6.760;2023-07-28T07:49:17;5.72;;;5.43;;
70014;SDS011;57358;51.094;6.760;2023-07-28T07:51:43;5.85;;;5.55;;
70014;SDS011;57358;51.094;6.760;2023-07-28T07:54:10;6.20;;;5.80;;
70014;SDS011;57358;51.094;6.760;2023-07-28T07:56:41;6.30;;;5.90;;
70014;SDS011;57358;51.094;6.760;2023-07-28T07:59:08;6.32;;;5.70;;
70014;SDS011;57358;51.094;6.760;2023-07-28T08:01:34;6.30;;;5.88;;
70014;SDS011;57358;51.094;6.760;2023-07-28T08:04:02;6.68;;;6.07;;
70014;SDS011;57358;51.094;6.760;2023-07-28T08:06:28;6.25;;;5.88;;
70014;SDS011;57358;51.094;6.760;2023-07-28T08:08:57;5.95;;;5.65;;
70014;SDS011;57358;51.094;6.760;2023-07-28T08:11:25;6.53;;;5.93;;
70014;SDS011;57358;51.094;6.760;2023-07-28T08:13:52;6.30;;;5.90;;
70014;SDS011;57358;51.094;6.760;2023-07-28T08:16:19;6.70;;;6.20;;
70014;SDS011;57358;51.094;6.760;2023-07-28T08:18:45;7.43;;;6.13;;
70014;SDS011;57358;51.094;6.760;2023-07-28T08:21:12;5.85;;;5.55;;
70014;SDS011;57358;51.094;6.760;2023-07-28T08:23:39;6.78;;;6.28;;
70014;SDS011;57358;51.094;6.760;2023-07-28T08:26:05;6.32;;;5.93;;
70014;SDS011;57358;51.094;6.760;2023-07-28T08:28:34;6.38;;;5.97;;
70014;SDS011;57358;51.094;6.760;2023-07-28T08:31:01;6.60;;;6.20;;
70014;SDS011;57358;51.094;6.760;2023-07-28T08:33:27;6.82;;;6.32;;
70014;SDS011;57358;51.094;6.760;2023-07-28T08:35:54;6.40;;;5.95;;
70014;SDS011;57358;51.094;6.760;2023-07-28T08:38:20;6.60;;;6.20;;
70014;SDS011;57358;51.094;6.760;2023-07-28T08:40:47;6.85;;;6.25;;
70014;SDS011;57358;51.094;6.760;2023-07-28T08:43:13;6.53;;;6.13;;
70014;SDS011;57358;51.094;6.760;2023-07-28T08:45:40;6.20;;;5.85;;
70014;SDS011;57358;51.094;6.760;2023-07-28T08:48:06;5.95;;;5.65;;
70014;SDS011;57358;51.094;6.760;2023-07-28T08:50:33;6.40;;;5.80;;
70014;SDS011;57358;51.094;6.760;2023-07-28T08:52:59;6.03;;;5.63;;
70014;SDS011;57358;51.094;6.760;2023-07-28T08:55:26;6.30;;;5.95;;
70014;SDS011;57358;51.094;6.760;2023-07-28T08:57:53;6.50;;;6.10;;
70014;SDS011;57358;51.094;6.760;2023-07-28T09:00:20;6.30;;;5.90;;
70014;SDS011;57358;51.094;6.760;2023-07-28T09:02:48;6.60;;;6.20;;
70014;SDS011;57358;51.094;6.760;2023-07-28T09:05:16;6.20;;;5.90;;
70014;SDS011;57358;51.094;6.760;2023-07-28T09:07:45;6.25;;;5.90;;
70014;SDS011;57358;51.094;6.760;2023-07-28T09:10:13;5.90;;;5.60;;
70014;SDS011;57358;51.094;6.760;2023-07-28T09:12:47;6.13;;;5.82;;
70014;SDS011;57358;51.094;6.760;2023-07-28T09:15:15;5.93;;;5.63;;
70014;SDS011;57358;51.094;6.760;2023-07-28T09:17:43;6.43;;;6.13;;
70014;SDS011;57358;51.094;6.760;2023-07-28T09:20:14;6.53;;;5.97;;
70014;SDS011;57358;51.094;6.760;2023-07-28T09:22:42;6.00;;;5.70;;
70014;SDS011;57358;51.094;6.760;2023-07-28T09:25:13;6.50;;;5.90;;
70014;SDS011;57358;51.094;6.760;2023-07-28T09:27:40;6.28;;;5.78;;
70014;SDS011;57358;51.094;6.760;2023-07-28T09:30:15;6.32;;;5.78;;
70014;SDS011;57358;51.094;6.760;2023-07-28T09:32:46;5.78;;;5.47;;
70014;SDS011;57358;51.094;6.760;2023-07-28T09:35:14;6.10;;;5.80;;
70014;SDS011;57358;51.094;6.760;2023-07-28T09:37:42;5.90;;;5.60;;
70014;SDS011;57358;51.094;6.760;2023-07-28T09:40:12;5.90;;;5.60;;
70014;SDS011;57358;51.094;6.760;2023-07-28T09:42:40;5.95;;;5.55;;
70014;SDS011;57358;51.094;6.760;2023-07-28T09:45:08;6.25;;;5.90;;
70014;SDS011;57358;51.094;6.760;2023-07-28T09:47:51;6.10;;;5.80;;
70014;SDS011;57358;51.094;6.760;2023-07-28T09:50:24;6.57;;;6.00;;
70014;SDS011;57358;51.094;6.760;2023-07-28T09:52:53;6.25;;;5.95;;
70014;SDS011;57358;51.094;6.760;2023-07-28T09:55:24;6.18;;;5.88;;
70014;SDS011;57358;51.094;6.760;2023-07-28T09:57:51;6.30;;;6.00;;
70014;SDS011;57358;51.094;6.760;2023-07-28T10:00:20;6.35;;;6.00;;
70014;SDS011;57358;51.094;6.760;2023-07-28T10:02:49;6.25;;;5.95;;
70014;SDS011;57358;51.094;6.760;2023-07-28T10:05:16;5.90;;;5.60;;
70014;SDS011;57358;51.094;6.760;2023-07-28T10:07:43;6.10;;;5.70;;
70014;SDS011;57358;51.094;6.760;2023-07-28T10:10:13;5.85;;;5.55;;
70014;SDS011;57358;51.094;6.760;2023-07-28T10:12:41;6.07;;;5.78;;
70014;SDS011;57358;51.094;6.760;2023-07-28T10:15:18;6.18;;;5.88;;
70014;SDS011;57358;51.094;6.760;2023-07-28T10:17:47;6.13;;;5.82;;
70014;SDS011;57358;51.094;6.760;2023-07-28T10:20:37;5.90;;;5.60;;
70014;SDS011;57358;51.094;6.760;2023-07-28T10:23:15;5.80;;;5.50;;
70014;SDS011;57358;51.094;6.760;2023-07-28T10:25:43;5.70;;;5.40;;
70014;SDS011;57358;51.094;6.760;2023-07-28T10:28:30;6.00;;;5.70;;
70014;SDS011;57358;51.094;6.760;2023-07-28T10:31:05;6.30;;;6.00;;
70014;SDS011;57358;51.094;6.760;2023-07-28T10:33:36;6.15;;;5.75;;
70014;SDS011;57358;51.094;6.760;2023-07-28T10:41:36;6.07;;;5.78;;
70014;SDS011;57358;51.094;6.760;2023-07-28T10:44:03;5.93;;;5.63;;
70014;SDS011;57358;51.094;6.760;2023-07-28T10:46:29;5.85;;;5.55;;
70014;SDS011;57358;51.094;6.760;2023-07-28T10:48:56;6.60;;;6.20;;
70014;SDS011;57358;51.094;6.760;2023-07-28T10:51:30;6.05;;;5.65;;
70014;SDS011;57358;51.094;6.760;2023-07-28T10:53:59;6.65;;;6.05;;
70014;SDS011;57358;51.094;6.760;2023-07-28T10:56:29;6.40;;;6.00;;
70014;SDS011;57358;51.094;6.760;2023-07-28T10:58:59;6.20;;;5.90;;
70014;SDS011;57358;51.094;6.760;2023-07-28T11:01:33;6.03;;;5.70;;
70014;SDS011;57358;51.094;6.760;2023-07-28T11:06:38;5.95;;;5.65;;
70014;SDS011;57358;51.094;6.760;2023-07-28T11:09:06;5.90;;;5.60;;
70014;SDS011;57358;51.094;6.760;2023-07-28T11:11:34;5.97;;;5.68;;
70014;SDS011;57358;51.094;6.760;2023-07-28T11:14:05;6.30;;;6.00;;
70014;SDS011;57358;51.094;6.760;2023-07-28T11:16:34;6.53;;;5.93;;
70014;SDS011;57358;51.094;6.760;2023-07-28T11:19:02;6.43;;;5.97;;
70014;SDS011;57358;51.094;6.760;2023-07-28T11:21:39;6.40;;;6.00;;
70014;SDS011;57358;51.094;6.760;2023-07-28T11:24:07;6.40;;;6.05;;
70014;SDS011;57358;51.094;6.760;2023-07-28T11:26:35;6.53;;;5.90;;
70014;SDS011;57358;51.094;6.760;2023-07-28T11:29:03;6.20;;;5.90;;
70014;SDS011;57358;51.094;6.760;2023-07-28T11:31:30;5.90;;;5.60;;
70014;SDS011;57358;51.094;6.760;2023-07-28T11:33:57;6.15;;;5.85;;
70014;SDS011;57358;51.094;6.760;2023-07-28T11:36:26;6.00;;;5.70;;
70014;SDS011;57358;51.094;6.760;2023-07-28T11:38:53;6.05;;;5.70;;
70014;SDS011;57358;51.094;6.760;2023-07-28T11:41:21;6.20;;;5.80;;
70014;SDS011;57358;51.094;6.760;2023-07-28T11:43:48;6.00;;;5.70;;
70014;SDS011;57358;51.094;6.760;2023-07-28T11:46:32;6.03;;;5.70;;
70014;SDS011;57358;51.094;6.760;2023-07-28T11:49:18;6.30;;;6.00;;
70014;SDS011;57358;51.094;6.760;2023-07-28T11:51:49;5.55;;;5.35;;
70014;SDS011;57358;51.094;6.760;2023-07-28T11:54:18;5.82;;;5.53;;
70014;SDS011;57358;51.094;6.760;2023-07-28T11:56:48;5.90;;;5.60;;
70014;SDS011;57358;51.094;6.760;2023-07-28T11:59:16;5.80;;;5.50;;
70014;SDS011;57358;51.094;6.760;2023-07-28T12:01:51;5.95;;;5.65;;
70014;SDS011;57358;51.094;6.760;2023-07-28T12:04:39;5.80;;;5.50;;
70014;SDS011;57358;51.094;6.760;2023-07-28T12:07:10;6.00;;;5.70;;
70014;SDS011;57358;51.094;6.760;2023-07-28T12:14:50;5.78;;;5.47;;
70014;SDS011;57358;51.094;6.760;2023-07-28T12:17:37;6.00;;;5.70;;
70014;SDS011;57358;51.094;6.760;2023-07-28T12:20:07;6.07;;;5.78;;
70014;SDS011;57358;51.094;6.760;2023-07-28T12:22:40;5.65;;;5.43;;
70014;SDS011;57358;51.094;6.760;2023-07-28T12:25:08;6.10;;;5.80;;
70014;SDS011;57358;51.094;6.760;2023-07-28T12:27:35;6.00;;;5.70;;
70014;SDS011;57358;51.094;6.760;2023-07-28T12:30:02;6.38;;;5.65;;
70014;SDS011;57358;51.094;6.760;2023-07-28T12:32:30;5.60;;;5.40;;
70014;SDS011;57358;51.094;6.760;2023-07-28T12:35:01;6.35;;;5.95;;
70014;SDS011;57358;51.094;6.760;2023-07-28T12:37:40;5.85;;;5.55;;
70014;SDS011;57358;51.094;6.760;2023-07-28T12:40:10;6.20;;;5.90;;
70014;SDS011;57358;51.094;6.760;2023-07-28T12:42:58;5.80;;;5.50;;
70014;SDS011;57358;51.094;6.760;2023-07-28T12:45:30;6.10;;;5.80;;
70014;SDS011;57358;51.094;6.760;2023-07-28T12:48:17;5.90;;;5.60;;
70014;SDS011;57358;51.094;6.760;2023-07-28T12:50:47;5.55;;;5.30;;
70014;SDS011;57358;51.094;6.760;2023-07-28T12:53:13;6.20;;;5.80;;
70014;SDS011;57358;51.094;6.760;2023-07-28T12:55:45;5.50;;;5.30;;
70014;SDS011;57358;51.094;6.760;2023-07-28T12:58:14;6.00;;;5.70;;
70014;SDS011;57358;51.094;6.760;2023-07-28T13:00:44;5.95;;;5.55;;
70014;SDS011;57358;51.094;6.760;2023-07-28T13:03:13;6.13;;;5.82;;
70014;SDS011;57358;51.094;6.760;2023-07-28T13:05:40;6.00;;;5.70;;
70014;SDS011;57358;51.094;6.760;2023-07-28T13:08:09;6.22;;;5.68;;
70014;SDS011;57358;51.094;6.760;2023-07-28T13:10:36;5.90;;;5.60;;
70014;SDS011;57358;51.094;6.760;2023-07-28T13:13:05;5.80;;;5.50;;
70014;SDS011;57358;51.094;6.760;2023-07-28T13:15:37;5.70;;;5.40;;
70014;SDS011;57358;51.094;6.760;2023-07-28T13:18:04;5.82;;;5.53;;
70014;SDS011;57358;51.094;6.760;2023-07-28T13:20:30;5.95;;;5.65;;
70014;SDS011;57358;51.094;6.760;2023-07-28T13:22:57;6.03;;;5.70;;
70014;SDS011;57358;51.094;6.760;2023-07-28T13:25:23;6.00;;;5.70;;
70014;SDS011;57358;51.094;6.760;2023-07-28T13:27:50;6.07;;;5.78;;
70014;SDS011;57358;51.094;6.760;2023-07-28T13:30:16;5.90;;;5.60;;
70014;SDS011;57358;51.094;6.760;2023-07-28T13:32:42;6.07;;;5.78;;
70014;SDS011;57358;51.094;6.760;2023-07-28T13:35:09;5.80;;;5.50;;
70014;SDS011;57358;51.094;6.760;2023-07-28T13:37:35;5.63;;;5.32;;
70014;SDS011;57358;51.094;6.760;2023-07-28T13:40:02;5.75;;;5.45;;
70014;SDS011;57358;51.094;6.760;2023-07-28T13:42:29;5.70;;;5.40;;
70014;SDS011;57358;51.094;6.760;2023-07-28T13:44:55;5.68;;;5.38;;
70014;SDS011;57358;51.094;6.760;2023-07-28T13:47:24;5.93;;;5.43;;
70014;SDS011;57358;51.094;6.760;2023-07-28T13:49:51;5.80;;;5.50;;
70014;SDS011;57358;51.094;6.760;2023-07-28T13:52:18;6.05;;;5.65;;
70014;SDS011;57358;51.094;6.760;2023-07-28T13:54:48;5.93;;;5.50;;
70014;SDS011;57358;51.094;6.760;2023-07-28T13:57:17;5.85;;;5.55;;
70014;SDS011;57358;51.094;6.760;2023-07-28T13:59:44;5.93;;;5.63;;
70014;SDS011;57358;51.094;6.760;2023-07-28T14:02:11;6.30;;;5.80;;
70014;SDS011;57358;51.094;6.760;2023-07-28T14:04:37;5.90;;;5.60;;
70014;SDS011;57358;51.094;6.760;2023-07-28T14:07:04;6.47;;;6.07;;
70014;SDS011;57358;51.094;6.760;2023-07-28T14:09:31;6.05;;;5.70;;
70014;SDS011;57358;51.094;6.760;2023-07-28T14:11:57;5.90;;;5.60;;
70014;SDS011;57358;51.094;6.760;2023-07-28T14:14:23;5.68;;;5.38;;
70014;SDS011;57358;51.094;6.760;2023-07-28T14:16:50;5.97;;;5.63;;
70014;SDS011;57358;51.094;6.760;2023-07-28T14:19:17;6.43;;;5.93;;
70014;SDS011;57358;51.094;6.760;2023-07-28T14:21:44;5.95;;;5.65;;
70014;SDS011;57358;51.094;6.760;2023-07-28T14:24:10;6.53;;;6.03;;
70014;SDS011;57358;51.094;6.760;2023-07-28T14:26:37;5.57;;;5.30;;
70014;SDS011;57358;51.094;6.760;2023-07-28T14:29:03;5.80;;;5.50;;
70014;SDS011;57358;51.094;6.760;2023-07-28T14:31:30;5.90;;;5.60;;
70014;SDS011;57358;51.094;6.760;2023-07-28T14:33:56;5.90;;;5.60;;
70014;SDS011;57358;51.094;6.760;2023-07-28T14:36:23;6.00;;;5.70;;
70014;SDS011;57358;51.094;6.760;2023-07-28T14:38:52;5.85;;;5.55;;
70014;SDS011;57358;51.094;6.760;2023-07-28T14:41:21;5.80;;;5.50;;
70014;SDS011;57358;51.094;6.760;2023-07-28T14:43:47;5.75;;;5.45;;
70014;SDS011;57358;51.094;6.760;2023-07-28T14:46:13;6.10;;;5.80;;
70014;SDS011;57358;51.094;6.760;2023-07-28T14:48:40;5.68;;;5.38;;
70014;SDS011;57358;51.094;6.760;2023-07-28T14:51:07;5.90;;;5.50;;
70014;SDS011;57358;51.094;6.760;2023-07-28T14:53:34;6.40;;;5.90;;
70014;SDS011;57358;51.094;6.760;2023-07-28T14:56:04;5.90;;;5.50;;
70014;SDS011;57358;51.094;6.760;2023-07-28T14:58:31;6.00;;;5.70;;
70014;SDS011;57358;51.094;6.760;2023-07-28T15:00:58;5.72;;;5.43;;
70014;SDS011;57358;51.094;6.760;2023-07-28T15:03:27;5.95;;;5.65;;
70014;SDS011;57358;51.094;6.760;2023-07-28T15:05:54;5.65;;;5.35;;
70014;SDS011;57358;51.094;6.760;2023-07-28T15:08:21;6.00;;;5.70;;
70014;SDS011;57358;51.094;6.760;2023-07-28T15:10:48;5.55;;;5.25;;